createdAt,value
2023-02-21T00:00:20.960Z,19.3
2023-02-21T00:01:31.183Z,19.3
2023-02-21T00:02:41.418Z,19.3
2023-02-21T00:03:51.624Z,19.3
2023-02-21T00:05:01.864Z,19.3
2023-02-21T00:06:12.091Z,19.3
2023-02-21T00:07:22.306Z,19.3
2023-02-21T00:08:31.685Z,19.3
2023-02-21T00:09:41.870Z,19.3
2023-02-21T00:10:52.095Z,19.3
2023-02-21T00:12:02.320Z,19.3
2023-02-21T00:13:12.556Z,19.3
2023-02-21T00:14:22.775Z,19.3
2023-02-21T00:15:33.003Z,19.3
2023-02-21T00:16:43.254Z,19.3
2023-02-21T00:17:53.478Z,19.3
2023-02-21T00:19:03.673Z,19.3
2023-02-21T00:20:13.901Z,19.3
2023-02-21T00:21:24.110Z,19.3
2023-02-21T00:22:34.347Z,19.3
2023-02-21T00:23:43.683Z,19.3
2023-02-21T00:24:53.909Z,19.3
2023-02-21T00:26:04.134Z,19.3
2023-02-21T00:27:14.365Z,19.3
2023-02-21T00:28:24.578Z,19.3
2023-02-21T00:29:34.800Z,19.3
2023-02-21T00:30:45.029Z,19.3
2023-02-21T00:31:55.255Z,19.3
2023-02-21T00:33:05.469Z,19.3
2023-02-21T00:34:15.699Z,19.3
2023-02-21T00:35:25.924Z,19.3
2023-02-21T00:36:36.185Z,19.3
2023-02-21T00:37:46.370Z,19.3
2023-02-21T00:38:55.710Z,19.3
2023-02-21T00:40:05.939Z,19.3
2023-02-21T00:41:16.203Z,19.3
2023-02-21T00:42:26.392Z,19.3
2023-02-21T00:43:36.624Z,19.3
2023-02-21T00:44:46.843Z,19.3
2023-02-21T00:45:57.058Z,19.3
2023-02-21T00:47:07.283Z,19.3
2023-02-21T00:48:17.503Z,19.3
2023-02-21T00:49:27.735Z,19.3
2023-02-21T00:50:37.953Z,19.3
2023-02-21T00:51:48.185Z,19.3
2023-02-21T00:52:58.400Z,19.3
2023-02-21T00:54:07.760Z,19.3
2023-02-21T00:55:18.014Z,19.3
2023-02-21T00:56:28.195Z,19.3
2023-02-21T00:57:38.430Z,19.3
2023-02-21T00:58:48.649Z,19.3
2023-02-21T00:59:58.865Z,19.3
2023-02-21T01:01:09.090Z,19.3
2023-02-21T01:02:19.330Z,19.3
2023-02-21T01:03:29.554Z,19.3
2023-02-21T01:04:39.808Z,19.3
2023-02-21T01:05:49.995Z,19.3
2023-02-21T01:07:00.228Z,19.3
2023-02-21T01:08:10.438Z,19.3
2023-02-21T01:09:19.780Z,19.3
2023-02-21T01:10:30.007Z,19.3
2023-02-21T01:11:40.243Z,19.3
2023-02-21T01:12:50.498Z,19.3
2023-02-21T01:14:00.675Z,19.3
2023-02-21T01:15:10.921Z,19.3
2023-02-21T01:16:21.143Z,19.3
2023-02-21T01:17:31.356Z,19.3
2023-02-21T01:18:41.575Z,19.3
2023-02-21T01:19:51.804Z,19.3
2023-02-21T01:21:02.030Z,19.3
2023-02-21T01:22:12.262Z,19.3
2023-02-21T01:23:22.515Z,19.3
2023-02-21T01:24:31.828Z,19.3
2023-02-21T01:25:42.055Z,19.3
2023-02-21T01:26:52.274Z,19.3
2023-02-21T01:28:02.485Z,19.3
2023-02-21T01:29:12.716Z,19.3
2023-02-21T01:30:22.938Z,19.3
2023-02-21T01:31:33.161Z,19.3
2023-02-21T01:32:43.400Z,19.3
2023-02-21T01:33:53.617Z,19.3
2023-02-21T01:35:03.840Z,19.3
2023-02-21T01:36:14.068Z,19.3
2023-02-21T01:37:24.286Z,19.3
2023-02-21T01:38:34.508Z,19.3
2023-02-21T01:39:43.853Z,19.3
2023-02-21T01:40:54.078Z,19.3
2023-02-21T01:42:04.311Z,19.2
2023-02-21T01:43:14.540Z,19.2
2023-02-21T01:44:24.747Z,19.2
2023-02-21T01:45:34.979Z,19.3
2023-02-21T01:46:45.207Z,19.3
2023-02-21T01:47:55.000Z,19.3
2023-02-21T01:49:05.643Z,19.2
2023-02-21T01:50:15.886Z,19.3
2023-02-21T01:51:26.138Z,19.3
2023-02-21T01:52:36.329Z,19.3
2023-02-21T01:53:46.551Z,19.3
2023-02-21T01:54:55.932Z,19.2
2023-02-21T01:56:06.120Z,19.2
2023-02-21T01:57:16.338Z,19.2
2023-02-21T01:58:26.574Z,19.2
2023-02-21T01:59:36.828Z,19.3
2023-02-21T02:00:47.005Z,19.3
2023-02-21T02:01:57.241Z,19.3
2023-02-21T02:03:06.601Z,19.3
2023-02-21T02:04:16.823Z,19.3
2023-02-21T02:05:27.091Z,19.2
2023-02-21T02:06:37.279Z,19.3
2023-02-21T02:07:47.504Z,19.2
2023-02-21T02:08:57.718Z,19.2
2023-02-21T02:10:07.988Z,19.2
2023-02-21T02:11:18.179Z,19.2
2023-02-21T02:12:28.403Z,19.2
2023-02-21T02:13:38.624Z,19.2
2023-02-21T02:14:48.836Z,19.2
2023-02-21T02:15:59.074Z,19.2
2023-02-21T02:17:09.287Z,19.2
2023-02-21T02:18:18.639Z,19.2
2023-02-21T02:20:39.079Z,19.2
2023-02-21T02:21:49.320Z,19.2
2023-02-21T02:22:59.530Z,19.2
2023-02-21T02:24:09.766Z,19.2
2023-02-21T02:25:19.981Z,19.2
2023-02-21T02:26:30.221Z,19.2
2023-02-21T02:27:40.447Z,19.2
2023-02-21T02:28:50.678Z,19.2
2023-02-21T02:30:00.901Z,19.2
2023-02-21T02:31:11.111Z,19.2
2023-02-21T02:32:21.336Z,19.2
2023-02-21T02:33:30.715Z,19.2
2023-02-21T02:34:40.919Z,19.2
2023-02-21T02:35:51.127Z,19.2
2023-02-21T02:37:01.354Z,19.2
2023-02-21T02:38:11.612Z,19.2
2023-02-21T02:39:21.800Z,19.2
2023-02-21T02:40:32.023Z,19.2
2023-02-21T02:41:42.249Z,19.2
2023-02-21T02:42:52.477Z,19.2
2023-02-21T02:44:02.695Z,19.2
2023-02-21T02:45:12.925Z,19.2
2023-02-21T02:46:23.162Z,19.2
2023-02-21T02:47:33.371Z,19.2
2023-02-21T02:48:42.730Z,19.2
2023-02-21T02:49:52.941Z,19.2
2023-02-21T02:51:03.180Z,19.2
2023-02-21T02:52:13.424Z,19.2
2023-02-21T02:53:23.629Z,19.2
2023-02-21T02:54:33.850Z,19.2
2023-02-21T02:55:44.061Z,19.2
2023-02-21T02:56:54.320Z,19.2
2023-02-21T02:58:04.507Z,19.2
2023-02-21T02:59:14.747Z,19.2
2023-02-21T03:00:24.973Z,19.2
2023-02-21T03:01:35.195Z,19.2
2023-02-21T03:02:45.403Z,19.2
2023-02-21T03:03:54.766Z,19.3
2023-02-21T03:05:04.973Z,19.2
2023-02-21T03:06:15.198Z,19.2
2023-02-21T03:07:25.426Z,19.2
2023-02-21T03:08:35.652Z,19.2
2023-02-21T03:09:45.879Z,19.2
2023-02-21T03:10:56.112Z,19.3
2023-02-21T03:12:06.333Z,19.3
2023-02-21T03:13:16.558Z,19.3
2023-02-21T03:14:26.803Z,19.3
2023-02-21T03:15:36.995Z,19.2
2023-02-21T03:16:47.229Z,19.3
2023-02-21T03:17:57.444Z,19.3
2023-02-21T03:19:06.788Z,19.2
2023-02-21T03:20:17.046Z,19.3
2023-02-21T03:21:27.246Z,19.3
2023-02-21T03:22:37.470Z,19.3
2023-02-21T03:23:47.686Z,19.3
2023-02-21T03:24:57.904Z,19.3
2023-02-21T03:26:08.128Z,19.3
2023-02-21T03:27:18.359Z,19.3
2023-02-21T03:28:28.578Z,19.3
2023-02-21T03:29:38.816Z,19.3
2023-02-21T03:30:49.040Z,19.3
2023-02-21T03:31:59.262Z,19.3
2023-02-21T03:33:09.488Z,19.2
2023-02-21T03:34:18.832Z,19.3
2023-02-21T03:35:29.047Z,19.2
2023-02-21T03:36:39.267Z,19.3
2023-02-21T03:37:49.506Z,19.3
2023-02-21T03:38:59.733Z,19.3
2023-02-21T03:40:09.956Z,19.3
2023-02-21T03:41:20.165Z,19.3
2023-02-21T03:42:30.392Z,19.3
2023-02-21T03:43:40.615Z,19.3
2023-02-21T03:44:50.834Z,19.3
2023-02-21T03:46:01.069Z,19.3
2023-02-21T03:47:11.301Z,19.3
2023-02-21T03:48:21.546Z,19.3
2023-02-21T03:49:30.859Z,19.3
2023-02-21T03:50:41.084Z,19.3
2023-02-21T03:51:51.310Z,19.3
2023-02-21T03:53:01.537Z,19.3
2023-02-21T03:54:11.753Z,19.3
2023-02-21T03:55:21.976Z,19.3
2023-02-21T03:56:32.195Z,19.3
2023-02-21T03:57:42.435Z,19.3
2023-02-21T03:58:52.651Z,19.3
2023-02-21T04:00:02.881Z,19.3
2023-02-21T04:01:13.093Z,19.2
2023-02-21T04:02:23.358Z,19.3
2023-02-21T04:03:33.555Z,19.3
2023-02-21T04:04:43.783Z,19.3
2023-02-21T04:05:53.119Z,19.3
2023-02-21T04:07:03.356Z,19.2
2023-02-21T04:08:13.568Z,19.2
2023-02-21T04:09:23.783Z,19.3
2023-02-21T04:10:34.009Z,19.3
2023-02-21T04:11:44.273Z,19.3
2023-02-21T04:12:54.458Z,19.3
2023-02-21T04:14:04.684Z,19.3
2023-02-21T04:15:14.945Z,19.3
2023-02-21T04:16:25.138Z,19.3
2023-02-21T04:17:35.356Z,19.3
2023-02-21T04:18:45.578Z,19.3
2023-02-21T04:19:55.801Z,19.3
2023-02-21T04:21:05.152Z,19.3
2023-02-21T04:22:15.411Z,19.3
2023-02-21T04:23:25.609Z,19.3
2023-02-21T04:24:35.836Z,19.3
2023-02-21T04:25:46.047Z,19.3
2023-02-21T04:26:56.283Z,19.3
2023-02-21T04:28:06.509Z,19.3
2023-02-21T04:29:16.000Z,19.3
2023-02-21T04:30:26.980Z,19.3
2023-02-21T04:31:37.175Z,19.3
2023-02-21T04:32:47.388Z,19.3
2023-02-21T04:33:57.624Z,19.3
2023-02-21T04:35:07.877Z,19.3
2023-02-21T04:36:17.192Z,19.3
2023-02-21T04:37:27.419Z,19.2
2023-02-21T04:38:37.630Z,19.3
2023-02-21T04:39:47.860Z,19.3
2023-02-21T04:40:58.088Z,19.3
2023-02-21T04:42:08.319Z,19.3
2023-02-21T04:43:18.525Z,19.3
2023-02-21T04:44:28.749Z,19.3
2023-02-21T04:45:38.985Z,19.3
2023-02-21T04:46:49.206Z,19.3
2023-02-21T04:47:59.434Z,19.3
2023-02-21T04:49:09.644Z,19.3
2023-02-21T04:50:19.877Z,19.3
2023-02-21T04:51:29.228Z,19.3
2023-02-21T04:52:39.445Z,19.3
2023-02-21T04:53:49.705Z,19.2
2023-02-21T04:54:59.902Z,19.3
2023-02-21T04:56:10.109Z,19.3
2023-02-21T04:57:20.351Z,19.3
2023-02-21T04:58:30.602Z,19.3
2023-02-21T04:59:40.826Z,19.3
2023-02-21T05:00:51.008Z,19.3
2023-02-21T05:02:01.240Z,19.3
2023-02-21T05:03:11.461Z,19.3
2023-02-21T05:04:21.691Z,19.3
2023-02-21T05:05:31.919Z,19.3
2023-02-21T05:06:41.264Z,19.3
2023-02-21T05:07:51.478Z,19.3
2023-02-21T05:09:01.703Z,19.3
2023-02-21T05:10:11.937Z,19.3
2023-02-21T05:11:22.163Z,19.3
2023-02-21T05:12:32.369Z,19.3
2023-02-21T05:13:42.591Z,19.3
2023-02-21T05:14:52.817Z,19.3
2023-02-21T05:16:03.051Z,19.3
2023-02-21T05:17:13.267Z,19.3
2023-02-21T05:18:23.508Z,19.3
2023-02-21T05:19:33.723Z,19.3
2023-02-21T05:20:43.950Z,19.3
2023-02-21T05:21:53.327Z,19.3
2023-02-21T05:23:03.522Z,19.3
2023-02-21T05:24:13.735Z,19.3
2023-02-21T05:25:23.956Z,19.3
2023-02-21T05:26:34.179Z,19.3
2023-02-21T05:27:44.412Z,19.3
2023-02-21T05:28:54.626Z,19.3
2023-02-21T05:30:04.864Z,19.3
2023-02-21T05:31:15.087Z,19.3
2023-02-21T05:32:25.300Z,19.3
2023-02-21T05:33:35.527Z,19.3
2023-02-21T05:34:45.792Z,19.3
2023-02-21T05:35:56.016Z,19.3
2023-02-21T05:37:05.333Z,19.3
2023-02-21T05:38:15.549Z,19.3
2023-02-21T05:39:25.765Z,19.3
2023-02-21T05:40:36.034Z,19.3
2023-02-21T05:41:46.218Z,19.3
2023-02-21T05:42:56.454Z,19.3
2023-02-21T05:44:06.707Z,19.3
2023-02-21T05:45:16.900Z,19.3
2023-02-21T05:46:27.113Z,19.3
2023-02-21T05:47:37.345Z,19.3
2023-02-21T05:48:47.560Z,19.3
2023-02-21T05:49:57.790Z,19.3
2023-02-21T05:51:08.017Z,19.3
2023-02-21T05:52:17.371Z,19.3
2023-02-21T05:53:27.592Z,19.3
2023-02-21T05:54:37.809Z,19.3
2023-02-21T05:55:48.029Z,19.3
2023-02-21T05:56:58.266Z,19.4
2023-02-21T05:58:07.625Z,19.3
2023-02-21T05:59:17.850Z,19.3
2023-02-21T06:00:28.073Z,19.3
2023-02-21T06:01:38.296Z,19.3
2023-02-21T06:02:48.523Z,19.3
2023-02-21T06:03:58.781Z,19.3
2023-02-21T06:05:08.964Z,19.3
2023-02-21T06:06:19.189Z,19.3
2023-02-21T06:07:29.411Z,19.3
2023-02-21T06:08:39.632Z,19.3
2023-02-21T06:09:49.875Z,19.3
2023-02-21T06:11:00.098Z,19.3
2023-02-21T06:12:10.321Z,19.3
2023-02-21T06:13:20.533Z,19.3
2023-02-21T06:14:29.879Z,19.4
2023-02-21T06:15:40.105Z,19.4
2023-02-21T06:16:50.368Z,19.4
2023-02-21T06:18:00.550Z,19.4
2023-02-21T06:19:10.771Z,19.4
2023-02-21T06:20:21.012Z,19.4
2023-02-21T06:21:31.230Z,19.4
2023-02-21T06:22:41.489Z,19.4
2023-02-21T06:23:51.681Z,19.4
2023-02-21T06:25:01.906Z,19.4
2023-02-21T06:26:12.127Z,19.4
2023-02-21T06:27:22.385Z,19.4
2023-02-21T06:28:32.579Z,19.4
2023-02-21T06:29:41.911Z,19.4
2023-02-21T06:30:52.179Z,19.4
2023-02-21T06:32:02.403Z,19.4
2023-02-21T06:33:12.581Z,19.4
2023-02-21T06:34:22.803Z,19.4
2023-02-21T06:35:33.037Z,19.4
2023-02-21T06:36:43.270Z,19.5
2023-02-21T06:37:53.475Z,19.5
2023-02-21T06:39:03.716Z,19.5
2023-02-21T06:40:13.943Z,19.4
2023-02-21T06:41:24.151Z,19.4
2023-02-21T06:42:34.383Z,19.4
2023-02-21T06:43:44.606Z,19.5
2023-02-21T06:44:54.960Z,19.5
2023-02-21T06:46:05.165Z,19.5
2023-02-21T06:47:15.389Z,19.5
2023-02-21T06:48:25.621Z,19.5
2023-02-21T06:49:35.852Z,19.5
2023-02-21T06:50:46.070Z,19.5
2023-02-21T06:51:56.294Z,19.5
2023-02-21T06:53:06.514Z,19.5
2023-02-21T06:54:16.783Z,19.5
2023-02-21T06:55:27.007Z,19.5
2023-02-21T06:56:37.203Z,19.5
2023-02-21T06:57:47.427Z,19.5
2023-02-21T06:58:57.633Z,19.5
2023-02-21T07:00:06.991Z,19.5
2023-02-21T07:01:17.219Z,19.5
2023-02-21T07:02:27.443Z,19.4
2023-02-21T07:03:37.661Z,19.5
2023-02-21T07:04:47.887Z,19.5
2023-02-21T07:05:58.098Z,19.5
2023-02-21T07:07:08.335Z,19.5
2023-02-21T07:08:18.595Z,19.5
2023-02-21T07:09:28.783Z,19.5
2023-02-21T07:10:39.004Z,19.5
2023-02-21T07:11:49.231Z,19.5
2023-02-21T07:12:59.462Z,19.5
2023-02-21T07:14:09.716Z,19.6
2023-02-21T07:15:19.032Z,19.6
2023-02-21T07:16:29.251Z,19.5
2023-02-21T07:17:39.510Z,19.6
2023-02-21T07:18:49.734Z,19.6
2023-02-21T07:19:59.919Z,19.6
2023-02-21T07:21:10.135Z,19.6
2023-02-21T07:22:20.371Z,19.6
2023-02-21T07:23:30.587Z,19.6
2023-02-21T07:24:40.815Z,19.6
2023-02-21T07:25:51.042Z,19.6
2023-02-21T07:27:01.270Z,19.6
2023-02-21T07:28:11.482Z,19.6
2023-02-21T07:29:21.708Z,19.6
2023-02-21T07:30:31.054Z,19.6
2023-02-21T07:31:41.284Z,19.6
2023-02-21T07:32:51.547Z,19.6
2023-02-21T07:34:01.731Z,19.6
2023-02-21T07:35:11.948Z,19.6
2023-02-21T07:36:22.181Z,19.6
2023-02-21T07:37:32.443Z,19.6
2023-02-21T07:38:42.623Z,19.6
2023-02-21T07:39:52.845Z,19.6
2023-02-21T07:41:03.073Z,19.7
2023-02-21T07:42:13.340Z,19.6
2023-02-21T07:43:23.516Z,19.7
2023-02-21T07:44:33.736Z,19.7
2023-02-21T07:45:44.098Z,19.7
2023-02-21T07:46:54.318Z,19.7
2023-02-21T07:48:04.538Z,19.7
2023-02-21T07:49:14.765Z,19.7
2023-02-21T07:50:24.995Z,19.7
2023-02-21T07:51:35.219Z,19.7
2023-02-21T07:52:45.442Z,19.7
2023-02-21T07:53:55.652Z,19.7
2023-02-21T07:55:05.879Z,19.7
2023-02-21T07:56:16.113Z,19.7
2023-02-21T07:57:26.327Z,19.7
2023-02-21T07:58:36.561Z,19.7
2023-02-21T07:59:46.776Z,19.7
2023-02-21T08:00:56.168Z,19.7
2023-02-21T08:02:06.353Z,19.7
2023-02-21T08:03:16.580Z,19.7
2023-02-21T08:04:26.796Z,19.7
2023-02-21T08:05:37.029Z,19.7
2023-02-21T08:06:47.248Z,19.7
2023-02-21T08:07:57.460Z,19.7
2023-02-21T08:09:07.704Z,19.7
2023-02-21T08:10:17.928Z,19.7
2023-02-21T08:11:28.149Z,19.7
2023-02-21T08:12:38.357Z,19.7
2023-02-21T08:13:48.581Z,19.7
2023-02-21T08:14:58.815Z,19.7
2023-02-21T08:16:08.164Z,19.8
2023-02-21T08:17:18.394Z,19.7
2023-02-21T08:18:28.603Z,19.8
2023-02-21T08:19:38.824Z,19.8
2023-02-21T08:20:49.046Z,19.8
2023-02-21T08:21:59.287Z,19.8
2023-02-21T08:23:09.501Z,19.9
2023-02-21T08:24:19.771Z,19.9
2023-02-21T08:25:29.944Z,19.9
2023-02-21T08:26:40.172Z,19.8
2023-02-21T08:27:50.403Z,19.7
2023-02-21T08:29:00.668Z,19.7
2023-02-21T08:30:10.857Z,19.7
2023-02-21T08:31:20.193Z,19.7
2023-02-21T08:32:30.425Z,19.7
2023-02-21T08:33:40.638Z,19.6
2023-02-21T08:34:50.876Z,19.6
2023-02-21T08:36:01.088Z,19.6
2023-02-21T08:37:11.310Z,19.6
2023-02-21T08:38:21.540Z,19.5
2023-02-21T08:39:31.806Z,19.5
2023-02-21T08:40:41.994Z,19.5
2023-02-21T08:41:52.206Z,19.5
2023-02-21T08:43:02.432Z,19.5
2023-02-21T08:44:12.664Z,19.5
2023-02-21T08:45:22.873Z,19.5
2023-02-21T08:46:32.239Z,19.6
2023-02-21T08:47:42.451Z,19.6
2023-02-21T08:48:52.679Z,19.5
2023-02-21T08:50:02.908Z,19.5
2023-02-21T08:51:13.127Z,19.5
2023-02-21T08:52:23.392Z,19.6
2023-02-21T08:53:33.564Z,19.7
2023-02-21T08:54:43.798Z,19.7
2023-02-21T08:55:54.011Z,19.7
2023-02-21T08:57:04.254Z,19.8
2023-02-21T08:58:14.472Z,19.8
2023-02-21T08:59:24.702Z,19.8
2023-02-21T09:00:34.918Z,19.8
2023-02-21T09:01:44.263Z,19.8
2023-02-21T09:02:54.479Z,19.8
2023-02-21T09:04:04.707Z,19.8
2023-02-21T09:05:14.934Z,19.8
2023-02-21T09:06:25.157Z,19.8
2023-02-21T09:07:35.388Z,19.8
2023-02-21T09:08:45.610Z,19.9
2023-02-21T09:09:55.837Z,19.9
2023-02-21T09:11:06.100Z,19.9
2023-02-21T09:12:16.276Z,19.9
2023-02-21T09:13:26.499Z,19.9
2023-02-21T09:14:36.735Z,19.9
2023-02-21T09:15:46.998Z,19.9
2023-02-21T09:16:56.299Z,19.9
2023-02-21T09:18:06.520Z,19.9
2023-02-21T09:19:16.738Z,19.9
2023-02-21T09:20:26.979Z,19.9
2023-02-21T09:21:37.203Z,19.9
2023-02-21T09:22:47.419Z,19.9
2023-02-21T09:23:57.652Z,19.9
2023-02-21T09:25:07.871Z,19.9
2023-02-21T09:26:18.084Z,19.9
2023-02-21T09:27:28.324Z,19.9
2023-02-21T09:28:38.533Z,19.9
2023-02-21T09:29:48.765Z,19.9
2023-02-21T09:30:58.993Z,19.9
2023-02-21T09:32:08.338Z,19.9
2023-02-21T09:33:18.565Z,19.9
2023-02-21T09:34:28.786Z,19.9
2023-02-21T09:35:39.015Z,19.9
2023-02-21T09:36:49.237Z,19.9
2023-02-21T09:37:59.448Z,19.9
2023-02-21T09:39:09.722Z,19.9
2023-02-21T09:40:19.908Z,19.9
2023-02-21T09:41:30.128Z,19.9
2023-02-21T09:42:40.343Z,19.9
2023-02-21T09:43:50.577Z,19.9
2023-02-21T09:45:00.797Z,19.8
2023-02-21T09:46:11.018Z,19.8
2023-02-21T09:47:20.362Z,19.8
2023-02-21T09:48:30.598Z,19.8
2023-02-21T09:49:40.824Z,19.8
2023-02-21T09:50:51.046Z,19.8
2023-02-21T09:52:01.257Z,19.8
2023-02-21T09:53:10.638Z,19.8
2023-02-21T09:54:20.847Z,19.8
2023-02-21T09:55:31.083Z,19.8
2023-02-21T09:56:41.310Z,19.8
2023-02-21T09:57:51.571Z,19.8
2023-02-21T09:59:01.741Z,19.7
2023-02-21T10:00:11.967Z,19.7
2023-02-21T10:01:22.199Z,19.7
2023-02-21T10:02:32.467Z,19.7
2023-02-21T10:03:42.640Z,19.7
2023-02-21T10:04:52.869Z,19.8
2023-02-21T10:06:03.090Z,19.8
2023-02-21T10:07:13.321Z,19.7
2023-02-21T10:08:22.669Z,19.7
2023-02-21T10:09:32.877Z,19.7
2023-02-21T10:10:43.119Z,19.7
2023-02-21T10:11:53.000Z,19.7
2023-02-21T10:13:03.564Z,19.7
2023-02-21T10:14:13.773Z,19.7
2023-02-21T10:15:24.006Z,19.8
2023-02-21T10:16:34.234Z,19.8
2023-02-21T10:17:44.453Z,19.8
2023-02-21T10:18:54.677Z,19.8
2023-02-21T10:20:04.950Z,19.8
2023-02-21T10:21:15.127Z,19.7
2023-02-21T10:22:25.343Z,19.7
2023-02-21T10:23:34.688Z,19.7
2023-02-21T10:24:44.915Z,19.7
2023-02-21T10:25:55.139Z,19.7
2023-02-21T10:27:05.362Z,19.7
2023-02-21T10:28:15.588Z,19.7
2023-02-21T10:29:25.816Z,19.7
2023-02-21T10:30:36.039Z,19.7
2023-02-21T10:31:46.265Z,19.7
2023-02-21T10:32:56.487Z,19.7
2023-02-21T10:34:06.722Z,19.7
2023-02-21T10:35:16.939Z,19.7
2023-02-21T10:36:27.167Z,19.8
2023-02-21T10:37:37.377Z,19.9
2023-02-21T10:38:46.778Z,19.8
2023-02-21T10:39:56.960Z,19.8
2023-02-21T10:41:07.181Z,19.8
2023-02-21T10:42:17.411Z,19.7
2023-02-21T10:43:27.617Z,19.7
2023-02-21T10:44:37.898Z,19.7
2023-02-21T10:45:48.071Z,19.7
2023-02-21T10:46:58.302Z,19.6
2023-02-21T10:48:08.521Z,19.6
2023-02-21T10:49:18.756Z,19.7
2023-02-21T10:50:28.962Z,19.7
2023-02-21T10:51:39.192Z,19.7
2023-02-21T10:52:49.425Z,19.7
2023-02-21T10:53:58.756Z,19.7
2023-02-21T10:55:08.989Z,19.7
2023-02-21T10:56:19.203Z,19.7
2023-02-21T10:57:29.430Z,19.8
2023-02-21T10:58:39.656Z,19.9
2023-02-21T10:59:49.879Z,19.9
2023-02-21T11:01:00.109Z,19.9
2023-02-21T11:02:10.327Z,19.9
2023-02-21T11:03:20.549Z,19.9
2023-02-21T11:04:30.773Z,19.9
2023-02-21T11:05:41.010Z,19.9
2023-02-21T11:06:51.223Z,19.9
2023-02-21T11:08:01.501Z,19.9
2023-02-21T11:09:10.788Z,19.9
2023-02-21T11:10:21.014Z,19.9
2023-02-21T11:11:31.254Z,19.9
2023-02-21T11:12:41.466Z,19.9
2023-02-21T11:13:51.701Z,20
2023-02-21T11:15:01.916Z,20
2023-02-21T11:16:12.139Z,20
2023-02-21T11:17:22.361Z,20
2023-02-21T11:18:32.593Z,19.9
2023-02-21T11:19:42.812Z,19.9
2023-02-21T11:20:53.047Z,19.8
2023-02-21T11:22:03.260Z,19.8
2023-02-21T11:23:13.495Z,19.9
2023-02-21T11:24:22.823Z,19.9
2023-02-21T11:25:33.061Z,19.9
2023-02-21T11:26:43.286Z,19.9
2023-02-21T11:27:53.497Z,20
2023-02-21T11:29:03.727Z,20
2023-02-21T11:30:13.944Z,20
2023-02-21T11:31:24.225Z,20
2023-02-21T11:32:34.397Z,20
2023-02-21T11:33:44.623Z,20
2023-02-21T11:34:54.845Z,20
2023-02-21T11:36:05.121Z,20
2023-02-21T11:37:15.296Z,20
2023-02-21T11:38:25.526Z,20
2023-02-21T11:39:34.857Z,20
2023-02-21T11:40:45.099Z,20
2023-02-21T11:41:55.323Z,20
2023-02-21T11:43:05.546Z,20
2023-02-21T11:44:15.756Z,20
2023-02-21T11:45:25.997Z,20
2023-02-21T11:46:36.206Z,20
2023-02-21T11:47:46.440Z,20.1
2023-02-21T11:48:56.662Z,20.1
2023-02-21T11:50:06.932Z,20
2023-02-21T11:51:17.100Z,20
2023-02-21T11:52:27.327Z,19.9
2023-02-21T11:53:37.557Z,19.8
2023-02-21T11:54:46.950Z,19.8
2023-02-21T11:55:57.126Z,19.7
2023-02-21T11:57:07.347Z,19.7
2023-02-21T11:58:17.579Z,19.7
2023-02-21T11:59:27.847Z,19.7
2023-02-21T12:00:38.021Z,19.7
2023-02-21T12:01:48.253Z,19.7
2023-02-21T12:02:58.520Z,19.7
2023-02-21T12:04:08.704Z,19.7
2023-02-21T12:05:18.915Z,19.7
2023-02-21T12:06:29.142Z,19.7
2023-02-21T12:07:39.416Z,19.7
2023-02-21T12:08:49.580Z,19.7
2023-02-21T12:09:58.938Z,19.7
2023-02-21T12:11:09.150Z,19.7
2023-02-21T12:12:19.390Z,19.6
2023-02-21T12:13:29.613Z,19.6
2023-02-21T12:14:39.829Z,19.6
2023-02-21T12:15:50.046Z,19.6
2023-02-21T12:17:00.277Z,19.6
2023-02-21T12:18:10.504Z,19.6
2023-02-21T12:19:20.738Z,19.5
2023-02-21T12:20:30.960Z,19.5
2023-02-21T12:21:41.167Z,19.6
2023-02-21T12:22:51.451Z,19.6
2023-02-21T12:24:01.623Z,19.6
2023-02-21T12:25:10.961Z,19.7
2023-02-21T12:26:21.204Z,19.7
2023-02-21T12:27:31.418Z,19.7
2023-02-21T12:28:41.638Z,19.7
2023-02-21T12:29:51.872Z,19.5
2023-02-21T12:31:02.141Z,19.5
2023-02-21T12:32:12.365Z,19.5
2023-02-21T12:33:22.539Z,19.5
2023-02-21T12:34:32.766Z,19.5
2023-02-21T12:35:42.993Z,19.6
2023-02-21T12:36:53.261Z,19.7
2023-02-21T12:38:03.441Z,19.8
2023-02-21T12:39:13.665Z,19.8
2023-02-21T12:40:23.012Z,19.9
2023-02-21T12:41:33.279Z,19.9
2023-02-21T12:42:43.455Z,19.9
2023-02-21T12:43:53.668Z,19.9
2023-02-21T12:45:03.903Z,19.9
2023-02-21T12:46:14.119Z,19.9
2023-02-21T12:47:24.351Z,19.9
2023-02-21T12:48:34.573Z,19.9
2023-02-21T12:49:44.847Z,19.9
2023-02-21T12:50:55.027Z,19.8
2023-02-21T12:52:05.237Z,19.8
2023-02-21T12:53:15.467Z,19.8
2023-02-21T12:54:25.689Z,19.8
2023-02-21T12:55:35.033Z,19.7
2023-02-21T12:56:45.267Z,19.8
2023-02-21T12:57:55.487Z,19.8
2023-02-21T12:59:05.712Z,19.8
2023-02-21T13:00:15.986Z,19.9
2023-02-21T13:01:26.164Z,19.9
2023-02-21T13:02:36.390Z,19.9
2023-02-21T13:03:46.608Z,19.9
2023-02-21T13:04:56.883Z,19.9
2023-02-21T13:06:07.056Z,20
2023-02-21T13:07:17.283Z,20
2023-02-21T13:08:27.509Z,20
2023-02-21T13:09:37.779Z,20
2023-02-21T13:10:47.943Z,19.9
2023-02-21T13:11:57.294Z,19.8
2023-02-21T13:13:07.530Z,19.8
2023-02-21T13:14:17.744Z,19.7
2023-02-21T13:15:27.970Z,19.8
2023-02-21T13:16:38.186Z,19.8
2023-02-21T13:17:48.424Z,19.9
2023-02-21T13:18:58.693Z,20
2023-02-21T13:20:08.860Z,20
2023-02-21T13:21:19.084Z,20.1
2023-02-21T13:22:29.319Z,20.1
2023-02-21T13:23:39.544Z,20.1
2023-02-21T13:24:49.757Z,20.1
2023-02-21T13:25:59.979Z,20.1
2023-02-21T13:27:09.322Z,20.1
2023-02-21T13:28:19.606Z,20.1
2023-02-21T13:29:29.772Z,20.1
2023-02-21T13:30:40.005Z,20.1
2023-02-21T13:31:50.233Z,20.1
2023-02-21T13:33:00.442Z,20.1
2023-02-21T13:34:10.676Z,20.1
2023-02-21T13:35:20.899Z,20.1
2023-02-21T13:36:31.121Z,20.1
2023-02-21T13:37:41.352Z,20.1
2023-02-21T13:38:51.563Z,20.1
2023-02-21T13:40:01.797Z,20.1
2023-02-21T13:41:12.012Z,20.1
2023-02-21T13:42:21.353Z,20.1
2023-02-21T13:43:31.593Z,20.1
2023-02-21T13:44:41.821Z,20.1
2023-02-21T13:45:52.027Z,20.1
2023-02-21T13:47:02.251Z,20.1
2023-02-21T13:48:11.625Z,20.1
2023-02-21T13:49:21.849Z,20.1
2023-02-21T13:50:32.073Z,20.1
2023-02-21T13:51:42.351Z,20.1
2023-02-21T13:52:52.524Z,20.1
2023-02-21T13:54:02.739Z,20.1
2023-02-21T13:55:12.973Z,20.1
2023-02-21T13:56:23.247Z,20.1
2023-02-21T13:57:33.408Z,20.1
2023-02-21T13:58:43.630Z,20.1
2023-02-21T13:59:53.864Z,20.1
2023-02-21T14:01:04.095Z,20.1
2023-02-21T14:02:14.320Z,20.1
2023-02-21T14:03:23.669Z,20.1
2023-02-21T14:04:33.881Z,20.1
2023-02-21T14:05:44.161Z,20.1
2023-02-21T14:06:54.324Z,20.1
2023-02-21T14:08:04.562Z,20.1
2023-02-21T14:09:14.781Z,20.1
2023-02-21T14:10:25.008Z,20.1
2023-02-21T14:11:35.229Z,20.1
2023-02-21T14:12:45.456Z,20.1
2023-02-21T14:13:55.679Z,20.1
2023-02-21T14:15:05.904Z,20.1
2023-02-21T14:16:16.116Z,20.2
2023-02-21T14:17:26.340Z,20.2
2023-02-21T14:18:35.697Z,20.2
2023-02-21T14:19:45.973Z,20.2
2023-02-21T14:20:56.148Z,20.1
2023-02-21T14:22:06.369Z,20.1
2023-02-21T14:23:16.590Z,20.1
2023-02-21T14:24:26.818Z,20.1
2023-02-21T14:25:37.030Z,20.1
2023-02-21T14:26:47.263Z,20.2
2023-02-21T14:27:57.492Z,20.2
2023-02-21T14:29:07.765Z,20.2
2023-02-21T14:30:17.930Z,20.2
2023-02-21T14:31:28.154Z,20.2
2023-02-21T14:32:38.387Z,20.2
2023-02-21T14:33:47.783Z,20.2
2023-02-21T14:34:57.957Z,20.2
2023-02-21T14:36:08.184Z,20.2
2023-02-21T14:37:18.404Z,20.2
2023-02-21T14:38:28.679Z,20.2
2023-02-21T14:39:38.848Z,20.2
2023-02-21T14:40:49.080Z,20.2
2023-02-21T14:41:59.293Z,20.2
2023-02-21T14:43:09.575Z,20.2
2023-02-21T14:44:19.752Z,20.1
2023-02-21T14:45:29.973Z,20.1
2023-02-21T14:46:40.195Z,20.1
2023-02-21T14:47:50.425Z,20.1
2023-02-21T14:48:59.762Z,20.1
2023-02-21T14:50:09.990Z,20.1
2023-02-21T14:51:20.208Z,20.1
2023-02-21T14:52:30.423Z,20.1
2023-02-21T14:53:40.653Z,20.1
2023-02-21T14:54:50.876Z,20.1
2023-02-21T14:56:01.098Z,20.1
2023-02-21T14:57:11.335Z,20.1
2023-02-21T14:58:21.551Z,20.1
2023-02-21T14:59:31.780Z,20.1
2023-02-21T15:00:41.997Z,20.1
2023-02-21T15:01:52.282Z,20.1
2023-02-21T15:03:02.445Z,20.1
2023-02-21T15:04:11.804Z,20.1
2023-02-21T15:05:22.011Z,20.1
2023-02-21T15:06:32.299Z,20.1
2023-02-21T15:07:42.465Z,20.1
2023-02-21T15:08:52.688Z,20.1
2023-02-21T15:10:02.922Z,20.1
2023-02-21T15:11:13.129Z,20.1
2023-02-21T15:12:23.373Z,20.1
2023-02-21T15:13:33.592Z,20.1
2023-02-21T15:14:43.808Z,20.1
2023-02-21T15:15:54.092Z,20.1
2023-02-21T15:17:04.262Z,20.1
2023-02-21T15:18:14.489Z,20.1
2023-02-21T15:19:23.830Z,20.1
2023-02-21T15:20:34.053Z,20.1
2023-02-21T15:21:44.281Z,20.1
2023-02-21T15:22:54.501Z,20.1
2023-02-21T15:24:04.714Z,20.1
2023-02-21T15:25:15.006Z,20.1
2023-02-21T15:26:25.168Z,20.1
2023-02-21T15:27:35.406Z,20.1
2023-02-21T15:28:45.623Z,20.1
2023-02-21T15:29:55.902Z,20.1
2023-02-21T15:31:06.072Z,20.1
2023-02-21T15:32:16.286Z,20.1
2023-02-21T15:33:26.523Z,20.1
2023-02-21T15:34:35.854Z,20.1
2023-02-21T15:35:46.084Z,20.1
2023-02-21T15:36:56.310Z,20.1